Time;durP1;ratioP1;P1;durP2;ratioP2;P2;SDS_P1;SDS_P2;PMS_P1;PMS_P2;Temp;Humidity;BMP_temperature;BMP_pressure;BME280_temperature;BME280_humidity;BME280_pressure;Samples;Min_cycle;Max_cycle;Signal;HPM_P1;HPM_P2
2021/07/28 00:01:46;;;;;;;17.40;12.88;;;;;;;21.96;59.46;98215.75;5104461;28;20027;-72
2021/07/28 00:04:11;;;;;;;18.35;12.55;;;;;;;21.96;59.77;98207.38;5096364;28;20106;-72
2021/07/28 00:06:37;;;;;;;17.23;11.50;;;;;;;21.97;59.68;98210.97;5101553;28;20491;-72
2021/07/28 00:09:02;;;;;;;16.73;12.52;;;;;;;21.97;59.74;98202.59;5101350;28;20024;-73
2021/07/28 00:11:27;;;;;;;17.95;12.45;;;;;;;21.96;59.83;98198.19;5103039;28;20023;-72
2021/07/28 00:13:52;;;;;;;22.50;12.95;;;;;;;21.92;59.83;98206.50;5104036;28;20032;-72
2021/07/28 00:16:18;;;;;;;17.80;12.73;;;;;;;21.90;60.00;98192.13;5101853;28;20043;-73
2021/07/28 00:24:04;;;;;;;19.60;13.55;;;;;;;21.79;60.08;98183.63;5100134;28;20047;-72
2021/07/28 00:26:30;;;;;;;18.95;13.82;;;;;;;21.77;60.28;98182.41;5102658;28;20020;-72
2021/07/28 00:28:55;;;;;;;18.83;13.60;;;;;;;21.75;60.38;98188.34;5102461;28;20067;-72
2021/07/28 00:31:21;;;;;;;20.13;13.60;;;;;;;21.72;60.54;98183.53;5101877;28;20027;-72
2021/07/28 00:33:46;;;;;;;19.65;13.95;;;;;;;21.70;60.83;98174.72;5102269;28;20019;-72
2021/07/28 00:36:11;;;;;;;19.75;13.77;;;;;;;21.70;60.79;98183.09;5102580;28;20641;-73
2021/07/28 00:38:37;;;;;;;19.42;13.93;;;;;;;21.71;61.23;98190.28;5101344;28;20074;-72
2021/07/28 00:41:02;;;;;;;21.50;14.02;;;;;;;21.70;60.79;98183.09;5103223;28;20080;-72
2021/07/28 00:43:29;;;;;;;19.15;14.82;;;;;;;21.71;61.17;98184.69;5102501;28;20030;-72
2021/07/28 00:45:54;;;;;;;21.38;14.45;;;;;;;21.70;61.14;98186.69;5096294;28;20054;-73
2021/07/28 00:48:20;;;;;;;18.88;14.13;;;;;;;21.69;61.01;98182.31;5093529;28;20111;-72
2021/07/28 00:50:45;;;;;;;20.60;14.80;;;;;;;21.68;61.16;98183.47;5098142;28;20024;-73
2021/07/28 00:53:18;;;;;;;23.75;15.43;;;;;;;21.66;61.29;98182.22;5102802;28;20020;-75
2021/07/28 00:55:48;;;;;;;23.30;15.65;;;;;;;21.65;61.06;98180.63;5098070;28;20035;-74
2021/07/28 00:58:14;;;;;;;20.73;14.52;;;;;;;21.64;61.33;98185.41;5102231;28;20047;-74
2021/07/28 01:00:40;;;;;;;21.63;15.38;;;;;;;21.64;61.39;98179.03;5103150;28;20030;-74
2021/07/28 01:03:05;;;;;;;22.25;15.38;;;;;;;21.63;61.48;98178.22;5101735;28;20020;-74
2021/07/28 01:05:31;;;;;;;22.00;14.93;;;;;;;21.64;61.53;98179.03;5101044;28;20019;-73
2021/07/28 01:07:56;;;;;;;20.42;14.68;;;;;;;21.62;61.46;98173.00;5103440;28;20040;-74
2021/07/28 01:10:21;;;;;;;22.40;16.05;;;;;;;21.62;61.57;98173.81;5102337;28;20024;-74
2021/07/28 01:12:52;;;;;;;20.48;15.15;;;;;;;21.61;61.44;98174.97;5102058;28;20027;-73
2021/07/28 01:16:00;;;;;;;24.33;15.57;;;;;;;21.59;61.45;98180.13;5098634;28;20020;-74
2021/07/28 01:18:09;;;;;;;23.03;16.00;;;;;;;21.60;61.68;98183.75;5094588;27;20032;-74
2021/07/28 01:20:45;;;;;;;21.85;15.13;;;;;;;21.60;61.46;98175.38;5100547;28;20024;-74
2021/07/28 01:23:13;;;;;;;20.67;14.23;;;;;;;21.59;61.91;98180.13;5100361;28;20035;-74
2021/07/28 01:25:40;;;;;;;21.30;14.45;;;;;;;21.59;61.71;98184.91;5102257;28;20028;-74
2021/07/28 01:28:06;;;;;;;18.98;13.98;;;;;;;21.56;61.84;98183.66;5100595;28;20016;-74
2021/07/28 01:30:32;;;;;;;20.77;14.68;;;;;;;21.56;61.79;98186.47;5101970;28;20015;-74
2021/07/28 01:33:00;;;;;;;22.50;14.80;;;;;;;21.58;62.11;98191.69;5102129;28;20351;-75
2021/07/28 01:35:26;;;;;;;21.25;14.45;;;;;;;21.55;61.87;98185.69;5100530;28;20099;-74
2021/07/28 01:37:52;;;;;;;22.65;14.88;;;;;;;21.55;62.06;98182.06;5102030;28;20069;-74
2021/07/28 01:40:17;;;;;;;21.08;14.75;;;;;;;21.55;62.30;98184.84;5102298;28;20020;-73
2021/07/28 01:42:44;;;;;;;20.92;14.52;;;;;;;21.56;62.21;98192.03;5100397;28;20020;-73
2021/07/28 01:45:11;;;;;;;22.08;14.95;;;;;;;21.55;62.40;98193.22;5102512;28;20448;-73
2021/07/28 01:47:37;;;;;;;19.70;14.73;;;;;;;21.55;62.32;98190.44;5097664;28;20048;-73
2021/07/28 01:50:03;;;;;;;22.38;15.02;;;;;;;21.55;62.51;98185.69;5100149;28;20099;-74
2021/07/28 01:52:28;;;;;;;21.60;14.80;;;;;;;21.56;62.24;98180.88;5102005;28;20031;-73
2021/07/28 01:54:53;;;;;;;20.63;13.93;;;;;;;21.54;62.40;98177.66;5100009;28;20095;-73
2021/07/28 01:57:19;;;;;;;18.52;14.25;;;;;;;21.51;62.44;98182.03;5101740;28;20059;-73
2021/07/28 01:59:44;;;;;;;20.45;14.30;;;;;;;21.50;62.46;98174.84;5101382;28;20107;-73
2021/07/28 02:02:09;;;;;;;20.45;14.63;;;;;;;21.50;62.67;98179.59;5100231;28;20019;-73
2021/07/28 02:04:34;;;;;;;21.80;15.35;;;;;;;21.49;62.77;98176.00;5102645;28;20050;-73
2021/07/28 02:07:00;;;;;;;21.17;15.05;;;;;;;21.46;62.79;98167.56;5101549;28;20024;-74
2021/07/28 02:09:25;;;;;;;21.05;14.35;;;;;;;21.47;62.62;98177.56;5101522;28;20024;-73
2021/07/28 02:11:50;;;;;;;19.60;14.95;;;;;;;21.44;62.82;98169.94;5099952;28;20029;-74
2021/07/28 02:14:16;;;;;;;23.27;15.70;;;;;;;21.43;62.94;98171.94;5097311;28;20069;-74
2021/07/28 02:16:41;;;;;;;22.08;15.20;;;;;;;21.41;62.61;98169.50;5101195;28;20440;-73
2021/07/28 02:19:07;;;;;;;23.75;15.07;;;;;;;21.41;62.83;98168.72;5101645;28;20024;-74
2021/07/28 02:21:33;;;;;;;23.17;15.07;;;;;;;21.39;62.84;98169.09;5100117;28;20051;-74
2021/07/28 02:23:59;;;;;;;25.02;18.00;;;;;;;21.34;62.87;98171.41;5101568;28;20031;-73
2021/07/28 02:26:24;;;;;;;37.08;22.88;;;;;;;21.32;62.85;98170.97;5101608;28;20467;-73
2021/07/28 02:28:52;;;;;;;27.40;19.55;;;;;;;21.31;63.04;98164.59;5100125;28;20106;-73
2021/07/28 02:31:17;;;;;;;23.15;17.08;;;;;;;21.32;63.04;98162.59;5097542;28;20028;-74
2021/07/28 02:33:42;;;;;;;22.40;16.25;;;;;;;21.33;63.06;98153.88;5101262;28;20027;-74
2021/07/28 02:36:08;;;;;;;24.88;15.98;;;;;;;21.31;62.91;98156.22;5101646;28;20028;-74
2021/07/28 02:38:33;;;;;;;23.42;16.33;;;;;;;21.31;63.15;98152.63;5099947;28;20020;-73
2021/07/28 02:40:59;;;;;;;20.30;15.77;;;;;;;21.28;63.31;98154.19;5101556;28;20036;-73
2021/07/28 02:43:24;;;;;;;24.35;16.50;;;;;;;21.23;63.50;98157.28;5101036;28;20553;-72
2021/07/28 02:45:49;;;;;;;24.83;16.60;;;;;;;21.19;63.22;98151.69;5100019;28;20027;-73
2021/07/28 02:48:15;;;;;;;24.08;15.88;;;;;;;21.14;63.21;98152.00;5101809;28;20024;-73
2021/07/28 02:50:40;;;;;;;27.90;17.55;;;;;;;21.12;63.48;98154.34;5099126;28;20390;-73
2021/07/28 02:53:05;;;;;;;26.60;17.30;;;;;;;21.12;63.44;98144.00;5100773;28;20369;-73
2021/07/28 02:55:31;;;;;;;22.33;15.75;;;;;;;21.07;63.45;98144.31;5100604;28;20393;-72
2021/07/28 02:57:56;;;;;;;24.45;16.70;;;;;;;21.07;63.42;98151.88;5100576;28;20394;-74
2021/07/28 03:00:21;;;;;;;26.40;17.05;;;;;;;21.03;63.64;98157.38;5104826;28;20011;-73
2021/07/28 03:02:47;;;;;;;25.35;16.95;;;;;;;21.01;63.63;98159.72;5103507;28;20038;-73
2021/07/28 03:05:14;;;;;;;24.15;17.08;;;;;;;20.97;63.65;98156.91;5103020;28;20071;-73
2021/07/28 03:07:39;;;;;;;22.08;16.05;;;;;;;20.93;63.37;98156.03;5105018;28;20223;-73
2021/07/28 03:10:05;;;;;;;24.00;17.35;;;;;;;20.92;63.57;98148.84;5103283;28;20020;-73
2021/07/28 03:12:31;;;;;;;27.25;16.88;;;;;;;20.91;63.69;98150.03;5103336;28;20020;-72
2021/07/28 03:14:56;;;;;;;24.58;16.33;;;;;;;20.93;63.59;98156.03;5105522;28;20030;-73
2021/07/28 03:17:22;;;;;;;23.15;16.23;;;;;;;20.92;63.80;98150.84;5103823;28;20039;-73
2021/07/28 03:19:47;;;;;;;23.70;15.55;;;;;;;20.90;63.70;98144.84;5103738;28;20370;-73
2021/07/28 03:22:12;;;;;;;22.35;15.07;;;;;;;20.89;63.70;98157.16;5105173;28;20019;-73
2021/07/28 03:24:38;;;;;;;21.80;15.55;;;;;;;20.87;63.92;98149.16;5103178;28;20019;-74
2021/07/28 03:27:03;;;;;;;20.83;14.90;;;;;;;20.87;63.97;98157.53;5104426;28;20015;-73
2021/07/28 03:29:29;;;;;;;23.02;16.00;;;;;;;20.86;63.81;98155.91;5104784;28;20031;-74
2021/07/28 03:31:54;;;;;;;20.83;15.23;;;;;;;20.84;64.05;98157.47;5103471;28;20043;-73
2021/07/28 03:34:19;;;;;;;21.20;14.75;;;;;;;20.82;64.09;98155.03;5104593;28;20023;-73
2021/07/28 03:36:45;;;;;;;21.70;15.20;;;;;;;20.81;64.24;98162.63;5103797;28;20377;-73
2021/07/28 03:39:10;;;;;;;25.40;15.73;;;;;;;20.82;64.23;98155.03;5103041;28;20016;-73
2021/07/28 03:41:35;;;;;;;22.88;15.55;;;;;;;20.83;64.35;98159.44;5104903;28;20091;-73
2021/07/28 03:44:01;;;;;;;23.77;15.88;;;;;;;20.85;64.22;98154.31;5103034;28;20024;-73
2021/07/28 03:46:26;;;;;;;22.08;15.20;;;;;;;20.87;64.33;98157.53;5103419;28;20103;-73
2021/07/28 03:48:52;;;;;;;24.23;16.00;;;;;;;20.87;64.29;98143.59;5104635;28;20027;-73
2021/07/28 03:51:17;;;;;;;22.13;16.02;;;;;;;20.89;64.59;98146.03;5099794;28;20416;-73
2021/07/28 03:53:43;;;;;;;21.48;15.13;;;;;;;20.90;64.48;98147.63;5103796;28;20054;-73
2021/07/28 03:56:08;;;;;;;20.45;15.15;;;;;;;20.88;64.22;98141.63;5103946;28;20024;-73
2021/07/28 03:58:33;;;;;;;22.77;15.45;;;;;;;20.91;64.65;98147.25;5102332;28;20026;-74
2021/07/28 04:00:59;;;;;;;22.85;15.15;;;;;;;20.92;64.58;98143.28;5102545;28;20085;-73
2021/07/28 04:03:25;;;;;;;22.60;15.13;;;;;;;20.96;64.74;98143.34;5103259;28;20109;-72
2021/07/28 04:05:54;;;;;;;20.88;14.68;;;;;;;20.99;64.55;98136.22;5103975;28;20028;-74
2021/07/28 04:08:19;;;;;;;20.88;14.73;;;;;;;21.01;64.83;98136.63;5099629;28;20019;-74
2021/07/28 04:10:46;;;;;;;18.92;14.35;;;;;;;21.00;64.81;98133.03;5103241;28;20031;-73
2021/07/28 04:13:11;;;;;;;19.75;14.15;;;;;;;21.04;64.89;98133.09;5094029;28;20055;-73
2021/07/28 04:15:37;;;;;;;21.40;14.15;;;;;;;21.07;64.81;98129.56;5093428;28;20048;-73
2021/07/28 04:18:02;;;;;;;21.45;14.68;;;;;;;21.12;64.98;98134.84;5093585;28;20110;-73
2021/07/28 04:20:28;;;;;;;19.38;13.70;;;;;;;21.16;64.87;98132.91;5093940;28;20438;-73
2021/07/28 04:22:53;;;;;;;19.63;13.70;;;;;;;21.20;64.90;98133.75;5093943;28;20032;-73
2021/07/28 04:25:18;;;;;;;21.17;13.55;;;;;;;21.25;64.92;98138.22;5093625;28;20024;-74
2021/07/28 04:27:44;;;;;;;21.35;13.38;;;;;;;21.27;64.71;98142.22;5093659;28;20036;-73
2021/07/28 04:30:10;;;;;;;21.52;13.40;;;;;;;21.30;64.91;98143.47;5093722;28;20024;-73
2021/07/28 04:32:35;;;;;;;23.48;13.63;;;;;;;21.34;64.75;98130.38;5093762;28;20028;-74
2021/07/28 04:35:01;;;;;;;17.40;13.05;;;;;;;21.40;65.00;98137.22;5093253;28;20073;-74
2021/07/28 04:37:28;;;;;;;16.40;11.98;;;;;;;21.43;64.85;98138.47;5093591;28;20024;-73
2021/07/28 04:39:55;;;;;;;19.10;12.52;;;;;;;21.46;64.78;98136.88;5093963;28;20080;-74
2021/07/28 04:42:20;;;;;;;18.30;13.23;;;;;;;21.49;64.60;98130.56;5093805;28;20550;-73
2021/07/28 04:44:46;;;;;;;19.15;12.85;;;;;;;21.53;64.85;98135.03;5093696;28;20115;-73
2021/07/28 04:47:11;;;;;;;17.55;12.45;;;;;;;21.59;64.70;98132.69;5093551;28;20020;-73
2021/07/28 04:49:36;;;;;;;19.48;13.23;;;;;;;21.64;64.93;98126.81;5093410;28;20030;-73
2021/07/28 04:52:02;;;;;;;18.80;12.55;;;;;;;21.69;64.86;98131.25;5093412;28;20382;-73
2021/07/28 04:54:27;;;;;;;17.45;12.25;;;;;;;21.73;64.67;98126.53;5093570;28;20641;-73
2021/07/28 04:56:52;;;;;;;18.42;12.70;;;;;;;21.78;64.75;98122.59;5093369;28;20016;-73
2021/07/28 04:59:18;;;;;;;21.70;13.93;;;;;;;21.83;64.75;98123.06;5093047;28;20367;-72
2021/07/28 05:01:43;;;;;;;20.08;13.63;;;;;;;21.88;64.95;98118.34;5091963;28;20108;-73
2021/07/28 05:04:09;;;;;;;19.95;13.45;;;;;;;21.92;64.75;98116.38;5092895;28;20569;-73
2021/07/28 05:06:36;;;;;;;20.58;13.32;;;;;;;21.92;64.88;98114.38;5092113;28;20470;-72
2021/07/28 05:09:01;;;;;;;17.92;13.00;;;;;;;21.96;64.95;98111.66;5093055;28;20609;-72
2021/07/28 05:11:26;;;;;;;18.35;13.05;;;;;;;22.00;65.05;98113.28;5093138;28;20024;-72
2021/07/28 05:13:52;;;;;;;21.52;13.38;;;;;;;22.03;64.95;98111.72;5093154;28;20501;-72
2021/07/28 05:16:17;;;;;;;20.85;13.50;;;;;;;22.05;64.86;98100.97;5093013;28;20027;-72
2021/07/28 05:18:42;;;;;;;18.13;13.52;;;;;;;22.10;64.75;98108.22;5092918;28;20051;-73
2021/07/28 05:21:08;;;;;;;21.13;14.50;;;;;;;22.15;64.95;98116.25;5092293;28;20059;-73
2021/07/28 05:23:33;;;;;;;21.65;14.57;;;;;;;22.18;64.82;98109.91;5092778;28;20108;-72
2021/07/28 05:25:59;;;;;;;21.90;13.93;;;;;;;22.21;64.80;98111.91;5092885;28;20073;-72
2021/07/28 05:28:25;;;;;;;23.92;14.65;;;;;;;22.26;64.89;98117.16;5092846;28;20025;-72
2021/07/28 05:30:50;;;;;;;23.45;15.32;;;;;;;22.33;64.84;98115.63;5092826;28;20028;-72
2021/07/28 05:33:16;;;;;;;21.55;14.85;;;;;;;22.39;64.94;98125.25;5092855;28;20130;-72
2021/07/28 05:35:47;;;;;;;19.98;13.30;;;;;;;22.47;64.95;98126.16;5092812;28;20036;-72
2021/07/28 05:38:13;;;;;;;19.05;12.88;;;;;;;22.53;64.84;98128.22;5091665;28;20016;-73
2021/07/28 05:40:38;;;;;;;20.80;12.75;;;;;;;22.57;64.40;98119.88;5092480;28;20032;-73
2021/07/28 05:43:04;;;;;;;18.67;12.70;;;;;;;22.63;64.66;98123.09;5091286;28;20374;-73
2021/07/28 05:45:29;;;;;;;18.92;13.00;;;;;;;22.67;64.48;98115.56;5092587;28;20111;-73
2021/07/28 05:47:54;;;;;;;20.08;13.10;;;;;;;22.71;64.29;98111.63;5092473;28;20023;-73
2021/07/28 05:50:20;;;;;;;16.40;12.25;;;;;;;22.77;64.33;98102.88;5092638;28;20020;-73
2021/07/28 05:52:45;;;;;;;19.38;12.63;;;;;;;22.81;64.34;98106.50;5091207;28;20841;-73
2021/07/28 05:55:11;;;;;;;20.50;12.40;;;;;;;22.88;64.36;98101.75;5090573;28;20075;-73
2021/07/28 05:57:36;;;;;;;21.10;12.63;;;;;;;22.95;64.34;98106.59;5090664;28;20047;-73
2021/07/28 06:00:04;;;;;;;18.55;12.35;;;;;;;23.01;64.37;98105.03;5090672;28;20032;-73
2021/07/28 06:02:29;;;;;;;20.52;12.18;;;;;;;23.08;64.40;98111.88;5090450;28;20028;-73
2021/07/28 06:04:54;;;;;;;18.85;12.18;;;;;;;23.16;64.37;98110.75;5090666;28;20393;-73
2021/07/28 06:07:20;;;;;;;18.02;12.65;;;;;;;23.24;64.26;98111.63;5091586;28;20032;-73
2021/07/28 06:09:45;;;;;;;15.60;11.05;;;;;;;23.32;64.37;98107.69;5092234;28;20065;-73
2021/07/28 06:12:11;;;;;;;17.58;10.35;;;;;;;23.39;64.28;98110.53;5092479;28;20111;-73
2021/07/28 06:14:36;;;;;;;15.40;9.85;;;;;;;23.45;63.81;98117.31;5092480;28;20060;-73
2021/07/28 06:17:01;;;;;;;17.70;10.68;;;;;;;23.51;63.56;98111.34;5092456;28;20416;-73
2021/07/28 06:19:27;;;;;;;14.38;9.77;;;;;;;23.57;63.62;98113.41;5092414;28;20494;-73
2021/07/28 06:21:52;;;;;;;15.93;10.57;;;;;;;23.62;63.38;98112.22;5092436;28;20031;-73
2021/07/28 06:24:17;;;;;;;14.82;9.98;;;;;;;23.67;63.28;98105.44;5092208;28;20060;-73
2021/07/28 06:26:43;;;;;;;16.45;9.73;;;;;;;23.75;63.31;98110.69;5092325;28;20032;-73
2021/07/28 06:29:08;;;;;;;13.68;9.90;;;;;;;23.82;62.91;98118.31;5092367;28;20035;-73
2021/07/28 06:31:34;;;;;;;17.55;9.57;;;;;;;23.86;62.87;98113.53;5092464;28;20134;-74
2021/07/28 06:33:59;;;;;;;17.77;9.32;;;;;;;23.92;62.73;98113.94;5096434;28;20043;-73
2021/07/28 06:36:24;;;;;;;13.10;8.07;;;;;;;23.96;62.26;98114.75;5096342;28;20028;-73
2021/07/28 06:38:50;;;;;;;14.63;8.50;;;;;;;24.03;62.04;98122.44;5096362;28;20060;-74
2021/07/28 06:41:15;;;;;;;17.08;8.70;;;;;;;24.08;61.79;98119.22;5096184;28;20028;-73
2021/07/28 06:43:40;;;;;;;15.80;8.15;;;;;;;24.13;61.39;98115.25;5096256;28;20028;-73
2021/07/28 06:46:06;;;;;;;14.20;8.65;;;;;;;24.18;61.43;98115.66;5096177;28;20099;-73
2021/07/28 06:48:31;;;;;;;12.38;8.70;;;;;;;24.27;61.45;98120.88;5095984;28;20423;-73
2021/07/28 06:50:56;;;;;;;14.52;8.88;;;;;;;24.34;61.50;98122.91;5096138;28;20031;-73
2021/07/28 06:53:22;;;;;;;14.45;8.23;;;;;;;24.42;61.59;98116.09;5096206;28;20035;-73
2021/07/28 06:55:47;;;;;;;13.60;8.77;;;;;;;24.50;61.15;98114.09;5096083;28;20104;-73
2021/07/28 06:58:12;;;;;;;16.55;9.50;;;;;;;24.57;61.31;98122.53;5096016;28;20492;-74
2021/07/28 07:00:38;;;;;;;15.15;9.10;;;;;;;24.64;61.25;98116.13;5096084;28;20020;-74
2021/07/28 07:03:03;;;;;;;16.55;9.23;;;;;;;24.70;60.64;98117.31;5095691;28;20028;-73
2021/07/28 07:05:28;;;;;;;13.82;8.55;;;;;;;24.76;60.48;98117.75;5095909;28;20371;-74
2021/07/28 07:07:54;;;;;;;15.15;8.82;;;;;;;24.83;60.82;98109.34;5106508;28;20482;-75
2021/07/28 07:10:20;;;;;;;15.45;9.10;;;;;;;24.91;60.55;98110.13;5116079;28;20031;-74
2021/07/28 07:12:46;;;;;;;15.27;8.90;;;;;;;25.00;60.63;98115.34;5109944;28;20026;-75
2021/07/28 07:15:11;;;;;;;16.95;9.45;;;;;;;25.08;60.09;98114.13;5092060;28;20032;-75
2021/07/28 07:17:37;;;;;;;16.20;9.02;;;;;;;25.16;60.40;98107.28;5094853;28;20039;-75
2021/07/28 07:20:03;;;;;;;18.38;9.82;;;;;;;25.24;60.30;98105.28;5095013;28;20081;-75
2021/07/28 07:22:28;;;;;;;14.98;8.65;;;;;;;25.33;60.12;98099.25;5095153;28;20400;-75
2021/07/28 07:24:54;;;;;;;18.20;8.82;;;;;;;25.39;59.72;98097.63;5094600;28;20102;-75
2021/07/28 07:27:19;;;;;;;16.88;9.25;;;;;;;25.45;59.99;98098.84;5094734;28;20708;-74
2021/07/28 07:29:46;;;;;;;18.02;9.10;;;;;;;25.53;59.38;98106.03;5094809;28;20367;-75
2021/07/28 07:32:11;;;;;;;16.42;8.52;;;;;;;25.62;59.31;98096.38;5094948;28;20060;-76
2021/07/28 07:34:37;;;;;;;17.23;8.23;;;;;;;25.66;59.35;98097.16;5094345;28;20059;-75
2021/07/28 07:37:02;;;;;;;16.10;8.88;;;;;;;25.72;59.39;98098.34;5094424;28;20028;-75
2021/07/28 07:39:27;;;;;;;16.73;8.95;;;;;;;25.79;59.00;98097.50;5093406;28;20024;-74
2021/07/28 07:41:53;;;;;;;13.38;8.80;;;;;;;25.86;58.66;98098.31;5094493;28;20031;-74
2021/07/28 07:44:18;;;;;;;17.45;10.00;;;;;;;25.93;58.73;98103.06;5093143;28;20469;-75
2021/07/28 07:46:44;;;;;;;16.65;9.05;;;;;;;25.99;58.39;98095.81;5094002;28;20027;-75
2021/07/28 07:49:09;;;;;;;20.25;8.68;;;;;;;26.07;58.58;98096.56;5094360;28;20035;-75
2021/07/28 07:51:34;;;;;;;13.38;6.90;;;;;;;26.11;58.22;98090.91;5093495;28;20088;-75
2021/07/28 07:54:00;;;;;;;18.15;7.20;;;;;;;26.14;57.66;98096.56;5094121;28;20039;-73
2021/07/28 07:56:25;;;;;;;16.38;7.50;;;;;;;26.21;57.68;98092.91;5093703;28;20035;-75
2021/07/28 07:58:51;;;;;;;16.90;7.32;;;;;;;26.28;57.59;98089.25;5104369;28;20028;-73
2021/07/28 08:01:16;;;;;;;13.50;7.13;;;;;;;26.33;57.04;98090.84;5107852;28;20012;-74
2021/07/28 08:03:42;;;;;;;13.45;7.10;;;;;;;26.39;57.44;98084.34;5093429;28;20405;-73
2021/07/28 08:06:09;;;;;;;12.40;6.57;;;;;;;26.48;57.30;98094.34;5095286;28;20085;-77
2021/07/28 08:08:35;;;;;;;14.52;6.82;;;;;;;26.52;56.67;98093.09;5093518;28;20070;-76
2021/07/28 08:11:06;;;;;;;13.80;6.72;;;;;;;26.58;56.62;98082.22;5092323;28;20492;-73
2021/07/28 08:13:31;;;;;;;11.07;7.40;;;;;;;26.64;56.45;98091.00;5098141;28;20020;-74
2021/07/28 08:15:57;;;;;;;14.80;6.72;;;;;;;26.68;56.14;98080.53;5094929;28;20401;-75
2021/07/28 08:18:23;;;;;;;15.57;7.10;;;;;;;26.74;56.18;98087.31;5093512;28;20081;-74
2021/07/28 08:20:49;;;;;;;15.40;6.72;;;;;;;26.81;56.13;98083.63;5092431;28;20103;-75
2021/07/28 08:23:14;;;;;;;14.10;7.28;;;;;;;26.87;55.77;98090.44;5093557;28;20099;-81
2021/07/28 08:25:40;;;;;;;11.63;5.88;;;;;;;26.92;55.66;98092.81;5093268;28;20432;-76
2021/07/28 08:28:05;;;;;;;14.20;6.90;;;;;;;26.95;55.40;98083.53;5093736;28;20107;-75
2021/07/28 08:30:31;;;;;;;12.00;6.45;;;;;;;26.99;55.25;98089.13;5093453;28;20028;-75
2021/07/28 08:32:56;;;;;;;13.57;6.85;;;;;;;27.03;55.03;98082.25;5093255;28;20024;-74
2021/07/28 08:35:21;;;;;;;14.63;7.05;;;;;;;27.13;55.02;98074.09;5093166;28;20028;-74
2021/07/28 08:37:47;;;;;;;12.77;6.47;;;;;;;27.19;55.13;98086.50;5092668;28;20391;-75
2021/07/28 08:40:17;;;;;;;13.90;6.40;;;;;;;27.27;54.51;98081.63;5092156;28;20058;-76
2021/07/28 08:42:48;;;;;;;17.33;7.57;;;;;;;27.32;54.53;98081.94;5092943;28;20085;-75
2021/07/28 08:45:15;;;;;;;10.90;6.03;;;;;;;27.36;54.13;98076.25;5095649;28;20439;-76
2021/07/28 08:47:42;;;;;;;14.70;7.25;;;;;;;27.43;54.03;98081.03;5096531;28;20028;-73
2021/07/28 08:50:09;;;;;;;13.40;6.75;;;;;;;27.47;53.73;98085.44;5092828;28;20500;-74
2021/07/28 08:52:34;;;;;;;14.85;7.32;;;;;;;27.48;53.40;98078.56;5103484;28;20027;-74
2021/07/28 08:55:00;;;;;;;16.33;7.45;;;;;;;27.52;53.00;98086.19;5097405;28;20319;-76
2021/07/28 08:57:34;;;;;;;16.92;7.47;;;;;;;27.57;53.47;98083.69;5100494;28;20080;-77
2021/07/28 09:00:00;;;;;;;18.42;6.93;;;;;;;27.61;53.12;98084.44;5113493;28;20107;-77
2021/07/28 09:02:26;;;;;;;15.35;7.82;;;;;;;27.63;52.80;98084.06;5097518;28;20051;-75
2021/07/28 09:04:54;;;;;;;15.23;7.68;;;;;;;27.64;52.80;98080.00;5092604;28;20048;-77
2021/07/28 09:07:21;;;;;;;18.55;7.95;;;;;;;27.68;52.93;98077.94;5092926;28;20032;-76
2021/07/28 09:09:54;;;;;;;17.48;8.35;;;;;;;27.73;52.83;98088.72;5092440;28;20077;-74
2021/07/28 09:12:20;;;;;;;17.30;8.18;;;;;;;27.78;53.02;98087.47;5091573;28;20107;-76
2021/07/28 09:14:57;;;;;;;18.40;8.95;;;;;;;27.78;52.47;98085.44;5091740;28;20024;-74
2021/07/28 09:17:30;;;;;;;14.98;7.45;;;;;;;27.78;52.40;98093.91;5092711;28;20145;-74
2021/07/28 09:19:57;;;;;;;15.75;7.82;;;;;;;27.79;52.41;98087.03;5092990;28;20024;-74
2021/07/28 09:22:25;;;;;;;14.18;6.55;;;;;;;27.82;52.32;98096.69;5125765;27;20023;-74
2021/07/28 09:25:11;;;;;;;15.80;6.88;;;;;;;27.83;52.16;98084.19;5092523;28;20071;-75
2021/07/28 09:27:49;;;;;;;14.25;6.25;;;;;;;27.88;51.83;98088.56;5092783;28;20474;-75
2021/07/28 09:30:22;;;;;;;16.00;6.35;;;;;;;27.89;51.88;98092.97;5086121;28;20035;-71
2021/07/28 09:32:57;;;;;;;13.40;6.07;;;;;;;27.91;51.53;98096.16;5075717;28;20047;-75
2021/07/28 09:35:47;;;;;;;17.05;6.13;;;;;;;27.92;51.29;98087.28;5074055;28;20032;-74
2021/07/28 09:38:31;;;;;;;15.13;6.40;;;;;;;27.89;51.09;98096.59;5076202;28;20039;-74
2021/07/28 09:41:12;;;;;;;11.55;5.70;;;;;;;27.90;51.04;98095.38;5086809;28;20034;-74
2021/07/28 09:43:47;;;;;;;17.70;5.97;;;;;;;27.89;50.72;98088.16;5083642;28;20806;-72
2021/07/28 09:46:24;;;;;;;13.85;5.85;;;;;;;27.91;50.85;98087.72;5090074;28;20044;-73
2021/07/28 09:48:49;;;;;;;15.20;6.03;;;;;;;27.99;50.30;98096.84;5089029;28;20035;-74
2021/07/28 09:51:22;;;;;;;15.48;6.00;;;;;;;28.03;50.26;98089.16;5088562;28;20028;-73
2021/07/28 09:53:52;;;;;;;12.15;6.32;;;;;;;28.06;50.16;98083.47;5088645;28;20044;-76
2021/07/28 09:56:59;;;;;;;10.07;5.38;;;;;;;28.13;50.07;98088.25;5089931;28;20023;-74
2021/07/28 09:59:24;;;;;;;14.88;6.78;;;;;;;28.18;49.95;98084.94;5088573;28;20067;-73
2021/07/28 10:01:50;;;;;;;12.23;6.03;;;;;;;28.23;49.70;98081.66;5090469;28;20086;-75
2021/07/28 10:04:17;;;;;;;15.20;5.80;;;;;;;28.31;50.35;98081.56;5088012;28;20052;-73
2021/07/28 10:06:46;;;;;;;13.98;5.45;;;;;;;28.38;49.11;98076.59;5090228;28;20038;-69
2021/07/28 10:09:16;;;;;;;13.13;5.40;;;;;;;28.45;49.30;98072.06;5097224;28;20028;-74
2021/07/28 10:11:52;;;;;;;13.88;5.85;;;;;;;28.53;49.71;98082.81;5097906;28;20016;-73
2021/07/28 10:14:19;;;;;;;13.40;5.57;;;;;;;28.60;49.16;98075.47;5095477;28;20027;-72
2021/07/28 10:16:45;;;;;;;12.98;6.00;;;;;;;28.67;49.46;98075.34;5095805;28;20111;-76
2021/07/28 10:19:11;;;;;;;14.23;5.10;;;;;;;28.74;49.33;98066.75;5097153;28;20013;-74
2021/07/28 10:21:37;;;;;;;16.70;5.90;;;;;;;28.78;48.36;98066.72;5094248;28;20097;-72
2021/07/28 10:24:04;;;;;;;16.30;6.00;;;;;;;28.84;48.56;98067.00;5094694;28;20024;-72
2021/07/28 10:26:35;;;;;;;13.27;6.15;;;;;;;28.91;48.54;98059.25;5093972;28;20125;-72
2021/07/28 10:29:00;;;;;;;12.38;6.22;;;;;;;29.04;48.99;98065.06;5095221;28;20036;-72
2021/07/28 10:31:26;;;;;;;14.93;6.20;;;;;;;29.11;47.27;98048.00;5097211;28;20035;-72
2021/07/28 10:33:55;;;;;;;15.93;6.05;;;;;;;29.14;48.12;98062.47;5096684;28;20558;-73
2021/07/28 10:36:42;;;;;;;19.05;6.10;;;;;;;29.16;47.31;98051.50;5095324;28;20040;-74
2021/07/28 10:39:07;;;;;;;16.38;6.15;;;;;;;29.22;48.00;98044.94;5088141;28;20040;-75
2021/07/28 10:41:41;;;;;;;15.57;6.18;;;;;;;29.33;48.49;98047.56;5094662;28;20035;-73
2021/07/28 10:44:17;;;;;;;13.75;6.30;;;;;;;29.46;47.83;98038.47;5095654;28;20040;-72
2021/07/28 10:46:55;;;;;;;15.50;6.70;;;;;;;29.55;47.88;98044.31;5092620;28;20059;-75
2021/07/28 10:49:36;;;;;;;13.82;6.47;;;;;;;29.63;47.83;98042.16;5092435;28;20115;-76
2021/07/28 10:52:03;;;;;;;14.57;6.57;;;;;;;29.71;47.49;98043.59;5095529;28;20482;-75
2021/07/28 10:54:47;;;;;;;15.35;6.03;;;;;;;29.82;47.61;98046.19;5095284;28;20447;-72
2021/07/28 10:57:34;;;;;;;13.60;6.45;;;;;;;29.90;47.21;98041.97;5082978;28;20074;-74
2021/07/28 11:00:00;;;;;;;19.25;6.50;;;;;;;29.92;46.44;98045.16;5090924;28;20146;-74
2021/07/28 11:02:55;;;;;;;13.93;5.80;;;;;;;29.99;46.83;98042.19;5077776;28;20102;-74
2021/07/28 11:05:21;;;;;;;16.58;6.45;;;;;;;30.05;45.96;98042.47;5078960;28;20482;-74
2021/07/28 11:08:02;;;;;;;14.80;7.15;;;;;;;30.12;46.06;98039.47;5076591;28;20078;-74
2021/07/28 11:10:49;;;;;;;17.17;7.10;;;;;;;30.19;46.70;98040.53;5094825;28;20032;-75
2021/07/28 11:13:17;;;;;;;12.02;7.40;;;;;;;30.27;46.69;98045.59;5097589;28;20023;-74
2021/07/28 11:16:06;;;;;;;16.38;7.35;;;;;;;30.31;46.32;98042.66;5095473;28;20028;-73
2021/07/28 11:18:35;;;;;;;15.00;7.18;;;;;;;30.38;46.12;98036.03;5092773;28;20024;-74
2021/07/28 11:21:17;;;;;;;12.82;7.40;;;;;;;30.43;45.71;98038.34;5092896;28;20050;-74
2021/07/28 11:23:48;;;;;;;13.27;6.88;;;;;;;30.51;46.14;98028.44;5085018;28;20124;-74
2021/07/28 11:26:23;;;;;;;15.18;6.53;;;;;;;30.58;46.05;98028.28;5081486;28;20718;-74
2021/07/28 11:28:51;;;;;;;14.75;7.45;;;;;;;30.65;45.88;98032.19;5088756;28;20032;-73